sensor_id;sensor_type;location;lat;lon;timestamp;temperature;humidity
9271;DHT22;4673;53.458;9.940;2023-02-28T00:00:20;3.10;63.00
9271;DHT22;4673;53.458;9.940;2023-02-28T00:02:46;3.10;63.30
9271;DHT22;4673;53.458;9.940;2023-02-28T00:05:15;3.10;63.30
9271;DHT22;4673;53.458;9.940;2023-02-28T00:07:42;3.10;63.50
9271;DHT22;4673;53.458;9.940;2023-02-28T00:10:09;3.10;63.80
9271;DHT22;4673;53.458;9.940;2023-02-28T00:12:35;3.10;64.00
9271;DHT22;4673;53.458;9.940;2023-02-28T00:15:05;3.10;64.30
9271;DHT22;4673;53.458;9.940;2023-02-28T00:17:31;3.10;64.00
9271;DHT22;4673;53.458;9.940;2023-02-28T00:19:56;3.10;64.00
9271;DHT22;4673;53.458;9.940;2023-02-28T00:22:27;3.00;63.80
9271;DHT22;4673;53.458;9.940;2023-02-28T00:24:53;3.00;63.90
9271;DHT22;4673;53.458;9.940;2023-02-28T00:27:18;3.10;64.30
9271;DHT22;4673;53.458;9.940;2023-02-28T00:29:46;3.00;64.20
9271;DHT22;4673;53.458;9.940;2023-02-28T00:32:12;3.00;64.30
9271;DHT22;4673;53.458;9.940;2023-02-28T00:34:38;3.00;64.30
9271;DHT22;4673;53.458;9.940;2023-02-28T00:37:09;2.90;64.40
9271;DHT22;4673;53.458;9.940;2023-02-28T00:39:37;2.80;64.30
9271;DHT22;4673;53.458;9.940;2023-02-28T00:42:03;2.80;64.50
9271;DHT22;4673;53.458;9.940;2023-02-28T00:44:30;2.70;64.60
9271;DHT22;4673;53.458;9.940;2023-02-28T00:46:56;2.60;64.80
9271;DHT22;4673;53.458;9.940;2023-02-28T00:49:23;2.40;64.90
9271;DHT22;4673;53.458;9.940;2023-02-28T00:51:49;2.30;65.20
9271;DHT22;4673;53.458;9.940;2023-02-28T00:54:15;2.20;65.40
9271;DHT22;4673;53.458;9.940;2023-02-28T00:56:41;2.10;65.70
9271;DHT22;4673;53.458;9.940;2023-02-28T00:59:07;2.00;65.90
9271;DHT22;4673;53.458;9.940;2023-02-28T01:01:33;1.90;66.10
9271;DHT22;4673;53.458;9.940;2023-02-28T01:03:59;1.80;66.30
9271;DHT22;4673;53.458;9.940;2023-02-28T01:06:24;1.70;66.50
9271;DHT22;4673;53.458;9.940;2023-02-28T01:08:50;1.60;66.80
9271;DHT22;4673;53.458;9.940;2023-02-28T01:11:17;1.50;67.30
9271;DHT22;4673;53.458;9.940;2023-02-28T01:13:44;1.40;68.00
9271;DHT22;4673;53.458;9.940;2023-02-28T01:16:09;1.40;68.50
9271;DHT22;4673;53.458;9.940;2023-02-28T01:18:36;1.50;69.10
9271;DHT22;4673;53.458;9.940;2023-02-28T01:21:07;1.60;69.40
9271;DHT22;4673;53.458;9.940;2023-02-28T01:23:33;1.60;69.60
9271;DHT22;4673;53.458;9.940;2023-02-28T01:26:08;1.70;69.60
9271;DHT22;4673;53.458;9.940;2023-02-28T01:28:34;1.70;69.70
9271;DHT22;4673;53.458;9.940;2023-02-28T01:31:00;1.80;69.60
9271;DHT22;4673;53.458;9.940;2023-02-28T01:33:26;1.70;69.60
9271;DHT22;4673;53.458;9.940;2023-02-28T01:36:05;1.80;69.70
9271;DHT22;4673;53.458;9.940;2023-02-28T01:38:32;1.80;69.60
9271;DHT22;4673;53.458;9.940;2023-02-28T01:40:58;1.80;70.00
9271;DHT22;4673;53.458;9.940;2023-02-28T01:43:35;1.90;70.10
9271;DHT22;4673;53.458;9.940;2023-02-28T01:46:14;1.90;69.90
9271;DHT22;4673;53.458;9.940;2023-02-28T01:48:48;2.00;69.50
9271;DHT22;4673;53.458;9.940;2023-02-28T01:51:29;1.90;69.30
9271;DHT22;4673;53.458;9.940;2023-02-28T01:53:59;1.90;69.10
9271;DHT22;4673;53.458;9.940;2023-02-28T01:56:29;1.90;69.30
9271;DHT22;4673;53.458;9.940;2023-02-28T01:58:58;1.90;69.10
9271;DHT22;4673;53.458;9.940;2023-02-28T02:01:26;1.90;69.10
9271;DHT22;4673;53.458;9.940;2023-02-28T02:03:59;1.80;69.30
9271;DHT22;4673;53.458;9.940;2023-02-28T02:06:34;1.80;69.50
9271;DHT22;4673;53.458;9.940;2023-02-28T02:09:01;1.70;69.40
9271;DHT22;4673;53.458;9.940;2023-02-28T02:11:28;1.60;69.40
9271;DHT22;4673;53.458;9.940;2023-02-28T02:14:32;1.50;69.60
9271;DHT22;4673;53.458;9.940;2023-02-28T02:25:29;0.80;71.30
9271;DHT22;4673;53.458;9.940;2023-02-28T02:28:05;0.60;71.70
9271;DHT22;4673;53.458;9.940;2023-02-28T02:30:44;0.40;72.30
9271;DHT22;4673;53.458;9.940;2023-02-28T02:46:33;-0.20;75.70
9271;DHT22;4673;53.458;9.940;2023-02-28T02:49:02;-0.30;76.30
9271;DHT22;4673;53.458;9.940;2023-02-28T02:51:32;-0.30;77.20
9271;DHT22;4673;53.458;9.940;2023-02-28T02:54:05;-0.40;77.60
9271;DHT22;4673;53.458;9.940;2023-02-28T02:56:33;-0.40;77.80
9271;DHT22;4673;53.458;9.940;2023-02-28T02:59:07;-0.50;78.00
9271;DHT22;4673;53.458;9.940;2023-02-28T03:01:36;-0.60;78.50
9271;DHT22;4673;53.458;9.940;2023-02-28T03:04:09;-0.70;79.00
9271;DHT22;4673;53.458;9.940;2023-02-28T03:06:36;-0.70;79.60
9271;DHT22;4673;53.458;9.940;2023-02-28T03:09:02;-0.70;79.70
9271;DHT22;4673;53.458;9.940;2023-02-28T03:11:27;-0.80;79.80
9271;DHT22;4673;53.458;9.940;2023-02-28T03:14:09;-0.90;80.20
9271;DHT22;4673;53.458;9.940;2023-02-28T03:30:52;-1.30;82.40
9271;DHT22;4673;53.458;9.940;2023-02-28T03:33:55;-1.40;82.70
9271;DHT22;4673;53.458;9.940;2023-02-28T03:36:18;-1.40;83.10
9271;DHT22;4673;53.458;9.940;2023-02-28T03:39:01;-1.50;83.70
9271;DHT22;4673;53.458;9.940;2023-02-28T03:44:22;-1.50;84.20
9271;DHT22;4673;53.458;9.940;2023-02-28T03:47:04;-1.60;84.20
9271;DHT22;4673;53.458;9.940;2023-02-28T03:49:55;-1.60;84.90
9271;DHT22;4673;53.458;9.940;2023-02-28T03:52:27;-1.60;85.10
9271;DHT22;4673;53.458;9.940;2023-02-28T03:54:56;-1.70;85.30
9271;DHT22;4673;53.458;9.940;2023-02-28T04:00:00;-1.80;85.80
9271;DHT22;4673;53.458;9.940;2023-02-28T04:02:29;-1.80;85.90
9271;DHT22;4673;53.458;9.940;2023-02-28T04:04:55;-1.80;86.40
9271;DHT22;4673;53.458;9.940;2023-02-28T04:07:21;-1.90;86.60
9271;DHT22;4673;53.458;9.940;2023-02-28T04:09:46;-1.90;86.90
9271;DHT22;4673;53.458;9.940;2023-02-28T04:12:12;-1.80;87.30
9271;DHT22;4673;53.458;9.940;2023-02-28T04:14:38;-1.80;87.50
9271;DHT22;4673;53.458;9.940;2023-02-28T04:17:03;-1.80;87.60
9271;DHT22;4673;53.458;9.940;2023-02-28T04:19:29;-1.80;87.60
9271;DHT22;4673;53.458;9.940;2023-02-28T04:21:55;-1.80;87.50
9271;DHT22;4673;53.458;9.940;2023-02-28T04:24:26;-1.90;87.80
9271;DHT22;4673;53.458;9.940;2023-02-28T04:26:53;-1.80;87.90
9271;DHT22;4673;53.458;9.940;2023-02-28T04:29:25;-1.90;87.90
9271;DHT22;4673;53.458;9.940;2023-02-28T04:31:51;-1.90;88.00
9271;DHT22;4673;53.458;9.940;2023-02-28T04:34:19;-2.00;88.00
9271;DHT22;4673;53.458;9.940;2023-02-28T04:36:45;-2.10;88.20
9271;DHT22;4673;53.458;9.940;2023-02-28T04:39:11;-2.00;88.50
9271;DHT22;4673;53.458;9.940;2023-02-28T04:41:37;-2.00;88.80
9271;DHT22;4673;53.458;9.940;2023-02-28T04:44:03;-2.10;88.80
9271;DHT22;4673;53.458;9.940;2023-02-28T04:46:29;-2.00;88.90
9271;DHT22;4673;53.458;9.940;2023-02-28T04:48:55;-2.00;88.90
9271;DHT22;4673;53.458;9.940;2023-02-28T04:51:21;-2.10;88.90
9271;DHT22;4673;53.458;9.940;2023-02-28T04:53:47;-2.10;88.90
9271;DHT22;4673;53.458;9.940;2023-02-28T04:56:15;-2.20;88.80
9271;DHT22;4673;53.458;9.940;2023-02-28T04:58:41;-2.30;89.00
9271;DHT22;4673;53.458;9.940;2023-02-28T05:01:21;-2.30;89.50
9271;DHT22;4673;53.458;9.940;2023-02-28T05:03:48;-2.30;89.50
9271;DHT22;4673;53.458;9.940;2023-02-28T05:06:14;-2.30;89.70
9271;DHT22;4673;53.458;9.940;2023-02-28T05:08:40;-2.40;89.60
9271;DHT22;4673;53.458;9.940;2023-02-28T05:11:20;-2.40;89.70
9271;DHT22;4673;53.458;9.940;2023-02-28T05:13:48;-2.40;90.00
9271;DHT22;4673;53.458;9.940;2023-02-28T05:16:14;-2.40;90.30
9271;DHT22;4673;53.458;9.940;2023-02-28T05:18:40;-2.30;90.60
9271;DHT22;4673;53.458;9.940;2023-02-28T05:23:52;-2.40;90.30
9271;DHT22;4673;53.458;9.940;2023-02-28T05:26:19;-2.60;90.20
9271;DHT22;4673;53.458;9.940;2023-02-28T05:28:44;-2.60;90.60
9271;DHT22;4673;53.458;9.940;2023-02-28T05:31:11;-2.60;91.00
9271;DHT22;4673;53.458;9.940;2023-02-28T05:33:37;-2.50;91.30
9271;DHT22;4673;53.458;9.940;2023-02-28T05:36:03;-2.40;91.40
9271;DHT22;4673;53.458;9.940;2023-02-28T05:38:29;-2.40;91.60
9271;DHT22;4673;53.458;9.940;2023-02-28T05:40:54;-2.30;91.70
9271;DHT22;4673;53.458;9.940;2023-02-28T05:43:20;-2.30;91.60
9271;DHT22;4673;53.458;9.940;2023-02-28T05:45:45;-2.40;91.40
9271;DHT22;4673;53.458;9.940;2023-02-28T05:48:11;-2.40;91.50
9271;DHT22;4673;53.458;9.940;2023-02-28T05:50:36;-2.40;91.50
9271;DHT22;4673;53.458;9.940;2023-02-28T05:53:03;-2.40;91.40
9271;DHT22;4673;53.458;9.940;2023-02-28T05:55:28;-2.40;91.40
9271;DHT22;4673;53.458;9.940;2023-02-28T05:57:54;-2.50;91.40
9271;DHT22;4673;53.458;9.940;2023-02-28T06:00:20;-2.60;91.20
9271;DHT22;4673;53.458;9.940;2023-02-28T06:02:46;-2.60;91.40
9271;DHT22;4673;53.458;9.940;2023-02-28T06:05:16;-2.60;91.60
9271;DHT22;4673;53.458;9.940;2023-02-28T06:07:43;-2.60;91.70
9271;DHT22;4673;53.458;9.940;2023-02-28T06:10:11;-2.60;91.90
9271;DHT22;4673;53.458;9.940;2023-02-28T06:12:37;-2.60;91.90
9271;DHT22;4673;53.458;9.940;2023-02-28T06:15:03;-2.50;92.20
9271;DHT22;4673;53.458;9.940;2023-02-28T06:17:29;-2.60;92.00
9271;DHT22;4673;53.458;9.940;2023-02-28T06:19:54;-2.60;91.90
9271;DHT22;4673;53.458;9.940;2023-02-28T06:22:20;-2.60;92.20
9271;DHT22;4673;53.458;9.940;2023-02-28T06:24:45;-2.50;92.40
9271;DHT22;4673;53.458;9.940;2023-02-28T06:27:11;-2.60;92.30
9271;DHT22;4673;53.458;9.940;2023-02-28T06:29:37;-2.50;92.40
9271;DHT22;4673;53.458;9.940;2023-02-28T06:32:05;-2.40;92.70
9271;DHT22;4673;53.458;9.940;2023-02-28T06:34:31;-2.30;93.00
9271;DHT22;4673;53.458;9.940;2023-02-28T06:36:56;-2.20;93.00
9271;DHT22;4673;53.458;9.940;2023-02-28T06:39:22;-2.20;92.90
9271;DHT22;4673;53.458;9.940;2023-02-28T06:41:48;-2.20;92.70
9271;DHT22;4673;53.458;9.940;2023-02-28T06:44:15;-2.20;92.50
9271;DHT22;4673;53.458;9.940;2023-02-28T06:46:42;-2.20;92.50
9271;DHT22;4673;53.458;9.940;2023-02-28T06:49:09;-2.20;92.40
9271;DHT22;4673;53.458;9.940;2023-02-28T06:51:39;-2.10;92.70
9271;DHT22;4673;53.458;9.940;2023-02-28T06:54:05;-1.90;93.00
9271;DHT22;4673;53.458;9.940;2023-02-28T06:56:34;-1.80;93.10
9271;DHT22;4673;53.458;9.940;2023-02-28T06:59:01;-1.60;93.10
9271;DHT22;4673;53.458;9.940;2023-02-28T07:01:27;-1.50;93.10
9271;DHT22;4673;53.458;9.940;2023-02-28T07:03:53;-1.30;93.20
9271;DHT22;4673;53.458;9.940;2023-02-28T07:06:20;-1.00;93.30
9271;DHT22;4673;53.458;9.940;2023-02-28T07:08:48;-0.70;93.30
9271;DHT22;4673;53.458;9.940;2023-02-28T07:11:14;-0.40;92.80
9271;DHT22;4673;53.458;9.940;2023-02-28T07:13:40;-0.20;92.00
9271;DHT22;4673;53.458;9.940;2023-02-28T07:16:08;0.00;91.40
9271;DHT22;4673;53.458;9.940;2023-02-28T07:18:35;0.20;90.80
9271;DHT22;4673;53.458;9.940;2023-02-28T07:21:06;0.30;89.50
9271;DHT22;4673;53.458;9.940;2023-02-28T07:23:32;0.30;88.50
9271;DHT22;4673;53.458;9.940;2023-02-28T07:25:58;0.30;87.90
9271;DHT22;4673;53.458;9.940;2023-02-28T07:28:24;0.30;87.20
9271;DHT22;4673;53.458;9.940;2023-02-28T07:30:49;0.40;87.00
9271;DHT22;4673;53.458;9.940;2023-02-28T07:33:15;0.40;86.80
9271;DHT22;4673;53.458;9.940;2023-02-28T07:35:41;0.50;86.70
9271;DHT22;4673;53.458;9.940;2023-02-28T07:38:07;0.60;86.30
9271;DHT22;4673;53.458;9.940;2023-02-28T07:40:33;0.60;86.10
9271;DHT22;4673;53.458;9.940;2023-02-28T07:43:01;0.70;85.60
9271;DHT22;4673;53.458;9.940;2023-02-28T07:45:27;0.70;85.30
9271;DHT22;4673;53.458;9.940;2023-02-28T07:47:54;0.70;85.20
9271;DHT22;4673;53.458;9.940;2023-02-28T07:50:20;0.80;84.90
9271;DHT22;4673;53.458;9.940;2023-02-28T07:52:46;0.80;84.70
9271;DHT22;4673;53.458;9.940;2023-02-28T07:55:11;0.80;84.50
9271;DHT22;4673;53.458;9.940;2023-02-28T07:57:39;0.70;84.60
9271;DHT22;4673;53.458;9.940;2023-02-28T08:00:07;0.80;84.50
9271;DHT22;4673;53.458;9.940;2023-02-28T08:02:34;0.80;84.20
9271;DHT22;4673;53.458;9.940;2023-02-28T08:05:00;0.80;83.70
9271;DHT22;4673;53.458;9.940;2023-02-28T08:07:26;0.80;83.30
9271;DHT22;4673;53.458;9.940;2023-02-28T08:09:52;0.90;83.00
9271;DHT22;4673;53.458;9.940;2023-02-28T08:12:18;0.90;81.80
9271;DHT22;4673;53.458;9.940;2023-02-28T08:14:43;1.00;81.20
9271;DHT22;4673;53.458;9.940;2023-02-28T08:17:10;1.10;80.80
9271;DHT22;4673;53.458;9.940;2023-02-28T08:19:36;1.20;80.30
9271;DHT22;4673;53.458;9.940;2023-02-28T08:22:02;1.20;80.00
9271;DHT22;4673;53.458;9.940;2023-02-28T08:24:28;1.30;79.60
9271;DHT22;4673;53.458;9.940;2023-02-28T08:26:54;1.40;79.00
9271;DHT22;4673;53.458;9.940;2023-02-28T08:29:20;1.50;78.80
9271;DHT22;4673;53.458;9.940;2023-02-28T08:31:45;1.60;78.20
9271;DHT22;4673;53.458;9.940;2023-02-28T08:34:13;1.70;77.60
9271;DHT22;4673;53.458;9.940;2023-02-28T08:36:39;1.80;77.00
9271;DHT22;4673;53.458;9.940;2023-02-28T08:39:05;1.90;76.40
9271;DHT22;4673;53.458;9.940;2023-02-28T08:41:32;2.00;75.90
9271;DHT22;4673;53.458;9.940;2023-02-28T08:43:58;2.10;75.50
9271;DHT22;4673;53.458;9.940;2023-02-28T08:46:24;2.20;75.00
9271;DHT22;4673;53.458;9.940;2023-02-28T08:48:54;2.30;74.70
9271;DHT22;4673;53.458;9.940;2023-02-28T08:51:22;2.40;74.00
9271;DHT22;4673;53.458;9.940;2023-02-28T08:53:52;2.60;73.30
9271;DHT22;4673;53.458;9.940;2023-02-28T08:56:19;2.70;72.60
9271;DHT22;4673;53.458;9.940;2023-02-28T08:58:46;2.70;72.20
9271;DHT22;4673;53.458;9.940;2023-02-28T09:01:17;2.80;70.90
9271;DHT22;4673;53.458;9.940;2023-02-28T09:03:43;2.90;69.90
9271;DHT22;4673;53.458;9.940;2023-02-28T09:06:10;2.90;69.10
9271;DHT22;4673;53.458;9.940;2023-02-28T09:08:36;3.00;67.90
9271;DHT22;4673;53.458;9.940;2023-02-28T09:11:02;3.10;67.60
9271;DHT22;4673;53.458;9.940;2023-02-28T09:13:29;3.20;66.70
9271;DHT22;4673;53.458;9.940;2023-02-28T09:15:58;3.20;66.30
9271;DHT22;4673;53.458;9.940;2023-02-28T09:18:24;3.30;65.40
9271;DHT22;4673;53.458;9.940;2023-02-28T09:20:49;3.40;65.40
9271;DHT22;4673;53.458;9.940;2023-02-28T09:23:16;3.50;65.60
9271;DHT22;4673;53.458;9.940;2023-02-28T09:25:47;3.50;64.70
9271;DHT22;4673;53.458;9.940;2023-02-28T09:28:13;3.50;65.30
9271;DHT22;4673;53.458;9.940;2023-02-28T09:30:41;3.60;65.00
9271;DHT22;4673;53.458;9.940;2023-02-28T09:33:07;3.70;64.70
9271;DHT22;4673;53.458;9.940;2023-02-28T09:35:33;3.80;64.30
9271;DHT22;4673;53.458;9.940;2023-02-28T09:37:59;3.80;64.10
9271;DHT22;4673;53.458;9.940;2023-02-28T09:40:25;3.80;63.40
9271;DHT22;4673;53.458;9.940;2023-02-28T09:42:53;3.80;63.80
9271;DHT22;4673;53.458;9.940;2023-02-28T09:45:24;3.90;63.30
9271;DHT22;4673;53.458;9.940;2023-02-28T09:47:52;3.90;62.90
9271;DHT22;4673;53.458;9.940;2023-02-28T09:52:53;4.00;62.80
9271;DHT22;4673;53.458;9.940;2023-02-28T09:55:30;4.10;62.30
9271;DHT22;4673;53.458;9.940;2023-02-28T09:57:58;4.10;61.90
9271;DHT22;4673;53.458;9.940;2023-02-28T10:00:39;4.10;61.80
9271;DHT22;4673;53.458;9.940;2023-02-28T10:03:36;4.10;61.50
9271;DHT22;4673;53.458;9.940;2023-02-28T10:06:14;4.10;61.50
9271;DHT22;4673;53.458;9.940;2023-02-28T10:09:09;4.00;61.20
9271;DHT22;4673;53.458;9.940;2023-02-28T10:11:40;4.00;60.70
9271;DHT22;4673;53.458;9.940;2023-02-28T10:14:24;4.00;60.10
9271;DHT22;4673;53.458;9.940;2023-02-28T10:17:04;4.00;59.00
9271;DHT22;4673;53.458;9.940;2023-02-28T10:24:53;4.10;57.00
9271;DHT22;4673;53.458;9.940;2023-02-28T10:27:25;4.10;57.40
9271;DHT22;4673;53.458;9.940;2023-02-28T10:29:53;4.10;58.00
9271;DHT22;4673;53.458;9.940;2023-02-28T10:32:21;4.20;57.80
9271;DHT22;4673;53.458;9.940;2023-02-28T10:35:00;4.30;55.90
9271;DHT22;4673;53.458;9.940;2023-02-28T10:37:30;4.40;56.10
9271;DHT22;4673;53.458;9.940;2023-02-28T10:39:57;4.40;55.70
9271;DHT22;4673;53.458;9.940;2023-02-28T10:42:28;4.40;55.80
9271;DHT22;4673;53.458;9.940;2023-02-28T10:45:14;4.40;54.80
9271;DHT22;4673;53.458;9.940;2023-02-28T10:48:00;4.40;53.90
9271;DHT22;4673;53.458;9.940;2023-02-28T10:55:43;4.30;53.60
9271;DHT22;4673;53.458;9.940;2023-02-28T11:01:25;4.50;53.60
9271;DHT22;4673;53.458;9.940;2023-02-28T11:03:59;4.60;52.70
9271;DHT22;4673;53.458;9.940;2023-02-28T11:06:32;4.60;52.50
9271;DHT22;4673;53.458;9.940;2023-02-28T11:09:01;4.70;52.20
9271;DHT22;4673;53.458;9.940;2023-02-28T11:11:29;4.70;51.00
9271;DHT22;4673;53.458;9.940;2023-02-28T11:14:03;4.60;51.70
9271;DHT22;4673;53.458;9.940;2023-02-28T11:16:34;4.70;52.20
9271;DHT22;4673;53.458;9.940;2023-02-28T11:19:02;4.80;51.80
9271;DHT22;4673;53.458;9.940;2023-02-28T11:21:32;4.80;49.80
9271;DHT22;4673;53.458;9.940;2023-02-28T11:24:20;4.70;49.70
9271;DHT22;4673;53.458;9.940;2023-02-28T11:26:48;4.70;50.80
9271;DHT22;4673;53.458;9.940;2023-02-28T11:29:31;4.80;50.40
9271;DHT22;4673;53.458;9.940;2023-02-28T11:32:26;4.90;50.30
9271;DHT22;4673;53.458;9.940;2023-02-28T11:35:13;4.90;49.80
9271;DHT22;4673;53.458;9.940;2023-02-28T11:37:39;5.00;50.30
9271;DHT22;4673;53.458;9.940;2023-02-28T11:40:13;5.00;50.10
9271;DHT22;4673;53.458;9.940;2023-02-28T11:45:43;5.10;48.40
9271;DHT22;4673;53.458;9.940;2023-02-28T11:48:20;5.10;48.90
9271;DHT22;4673;53.458;9.940;2023-02-28T11:51:23;5.10;48.40
9271;DHT22;4673;53.458;9.940;2023-02-28T11:54:11;5.20;48.40
9271;DHT22;4673;53.458;9.940;2023-02-28T11:56:48;5.30;48.20
9271;DHT22;4673;53.458;9.940;2023-02-28T12:02:05;5.20;47.50
9271;DHT22;4673;53.458;9.940;2023-02-28T12:05:04;5.30;47.10
9271;DHT22;4673;53.458;9.940;2023-02-28T12:10:21;5.30;46.70
9271;DHT22;4673;53.458;9.940;2023-02-28T12:13:15;5.30;45.40
9271;DHT22;4673;53.458;9.940;2023-02-28T12:24:36;5.30;40.70
9271;DHT22;4673;53.458;9.940;2023-02-28T12:27:09;5.30;40.50
9271;DHT22;4673;53.458;9.940;2023-02-28T12:30:04;5.30;40.30
9271;DHT22;4673;53.458;9.940;2023-02-28T12:32:36;5.40;37.30
9271;DHT22;4673;53.458;9.940;2023-02-28T12:40:33;5.30;35.00
9271;DHT22;4673;53.458;9.940;2023-02-28T12:43:05;5.30;37.00
9271;DHT22;4673;53.458;9.940;2023-02-28T12:45:39;5.40;37.20
9271;DHT22;4673;53.458;9.940;2023-02-28T12:48:08;5.50;39.10
9271;DHT22;4673;53.458;9.940;2023-02-28T12:50:37;5.50;39.40
9271;DHT22;4673;53.458;9.940;2023-02-28T12:58:54;5.50;37.90
9271;DHT22;4673;53.458;9.940;2023-02-28T13:01:36;5.50;37.00
9271;DHT22;4673;53.458;9.940;2023-02-28T13:09:08;5.50;31.20
9271;DHT22;4673;53.458;9.940;2023-02-28T13:19:30;5.50;36.00
9271;DHT22;4673;53.458;9.940;2023-02-28T13:21:58;5.50;32.00
9271;DHT22;4673;53.458;9.940;2023-02-28T13:27:20;5.40;27.80
9271;DHT22;4673;53.458;9.940;2023-02-28T13:29:51;5.40;30.00
9271;DHT22;4673;53.458;9.940;2023-02-28T13:32:30;5.40;31.60
9271;DHT22;4673;53.458;9.940;2023-02-28T13:39:55;5.30;33.40
9271;DHT22;4673;53.458;9.940;2023-02-28T13:47:39;5.50;30.50
9271;DHT22;4673;53.458;9.940;2023-02-28T13:53:28;5.50;29.70
9271;DHT22;4673;53.458;9.940;2023-02-28T13:58:52;5.50;30.50
9271;DHT22;4673;53.458;9.940;2023-02-28T14:01:26;5.50;31.10
9271;DHT22;4673;53.458;9.940;2023-02-28T14:04:29;5.50;28.70
9271;DHT22;4673;53.458;9.940;2023-02-28T14:06:59;5.60;28.40
9271;DHT22;4673;53.458;9.940;2023-02-28T14:09:33;5.60;29.40
9271;DHT22;4673;53.458;9.940;2023-02-28T14:15:25;5.60;29.20
9271;DHT22;4673;53.458;9.940;2023-02-28T14:17:55;5.60;30.00
9271;DHT22;4673;53.458;9.940;2023-02-28T14:20:23;5.60;29.90
9271;DHT22;4673;53.458;9.940;2023-02-28T14:28:40;5.60;30.80
9271;DHT22;4673;53.458;9.940;2023-02-28T14:31:13;5.60;31.80
9271;DHT22;4673;53.458;9.940;2023-02-28T14:36:34;5.70;31.50
9271;DHT22;4673;53.458;9.940;2023-02-28T14:39:14;5.60;32.40
9271;DHT22;4673;53.458;9.940;2023-02-28T14:41:43;5.60;32.40
9271;DHT22;4673;53.458;9.940;2023-02-28T14:44:24;5.60;33.30
9271;DHT22;4673;53.458;9.940;2023-02-28T14:47:01;5.50;33.80
9271;DHT22;4673;53.458;9.940;2023-02-28T14:49:43;5.50;33.70
9271;DHT22;4673;53.458;9.940;2023-02-28T14:54:56;5.50;34.70
9271;DHT22;4673;53.458;9.940;2023-02-28T14:57:26;5.50;34.70
9271;DHT22;4673;53.458;9.940;2023-02-28T15:02:26;5.20;34.60
9271;DHT22;4673;53.458;9.940;2023-02-28T15:04:58;5.40;34.80
9271;DHT22;4673;53.458;9.940;2023-02-28T15:07:24;5.40;35.10
9271;DHT22;4673;53.458;9.940;2023-02-28T15:10:13;5.40;35.20
9271;DHT22;4673;53.458;9.940;2023-02-28T15:12:50;5.40;35.70
9271;DHT22;4673;53.458;9.940;2023-02-28T15:15:16;5.30;36.40
9271;DHT22;4673;53.458;9.940;2023-02-28T15:17:49;5.50;36.30
9271;DHT22;4673;53.458;9.940;2023-02-28T15:20:16;5.30;36.60
9271;DHT22;4673;53.458;9.940;2023-02-28T15:22:44;5.30;36.80
9271;DHT22;4673;53.458;9.940;2023-02-28T15:25:14;5.20;36.80
9271;DHT22;4673;53.458;9.940;2023-02-28T15:27:46;5.20;37.80
9271;DHT22;4673;53.458;9.940;2023-02-28T15:33:06;5.10;38.50
9271;DHT22;4673;53.458;9.940;2023-02-28T15:35:33;5.00;38.50
9271;DHT22;4673;53.458;9.940;2023-02-28T15:38:16;5.00;39.10
9271;DHT22;4673;53.458;9.940;2023-02-28T15:40:45;5.00;38.60
9271;DHT22;4673;53.458;9.940;2023-02-28T15:43:33;5.00;38.50
9271;DHT22;4673;53.458;9.940;2023-02-28T15:46:07;4.90;38.60
9271;DHT22;4673;53.458;9.940;2023-02-28T15:48:43;4.90;38.60
9271;DHT22;4673;53.458;9.940;2023-02-28T15:51:42;4.90;38.70
9271;DHT22;4673;53.458;9.940;2023-02-28T15:54:12;5.00;38.50
9271;DHT22;4673;53.458;9.940;2023-02-28T15:56:45;4.70;39.00
9271;DHT22;4673;53.458;9.940;2023-02-28T15:59:37;4.70;39.40
9271;DHT22;4673;53.458;9.940;2023-02-28T16:02:21;4.60;39.40
9271;DHT22;4673;53.458;9.940;2023-02-28T16:07:38;4.60;39.70
9271;DHT22;4673;53.458;9.940;2023-02-28T16:10:05;4.50;40.20
9271;DHT22;4673;53.458;9.940;2023-02-28T16:12:34;4.50;40.20
9271;DHT22;4673;53.458;9.940;2023-02-28T16:15:02;4.50;40.90
9271;DHT22;4673;53.458;9.940;2023-02-28T16:17:33;4.40;40.70
9271;DHT22;4673;53.458;9.940;2023-02-28T16:19:59;4.30;41.00
9271;DHT22;4673;53.458;9.940;2023-02-28T16:22:25;4.30;41.00
9271;DHT22;4673;53.458;9.940;2023-02-28T16:24:51;4.20;41.40
9271;DHT22;4673;53.458;9.940;2023-02-28T16:27:22;4.20;41.70
9271;DHT22;4673;53.458;9.940;2023-02-28T16:29:50;4.10;42.00
9271;DHT22;4673;53.458;9.940;2023-02-28T16:32:16;4.00;42.30
9271;DHT22;4673;53.458;9.940;2023-02-28T16:34:43;3.90;42.90
9271;DHT22;4673;53.458;9.940;2023-02-28T16:39:36;3.70;43.50
9271;DHT22;4673;53.458;9.940;2023-02-28T16:42:02;3.60;44.40
9271;DHT22;4673;53.458;9.940;2023-02-28T16:44:33;3.50;45.60
9271;DHT22;4673;53.458;9.940;2023-02-28T16:47:01;3.40;46.30
9271;DHT22;4673;53.458;9.940;2023-02-28T16:49:27;3.20;47.00
9271;DHT22;4673;53.458;9.940;2023-02-28T16:51:53;3.00;48.10
9271;DHT22;4673;53.458;9.940;2023-02-28T16:54:19;2.90;48.80
9271;DHT22;4673;53.458;9.940;2023-02-28T16:56:47;2.70;49.40
9271;DHT22;4673;53.458;9.940;2023-02-28T16:59:21;2.60;50.90
9271;DHT22;4673;53.458;9.940;2023-02-28T17:01:47;2.50;52.10
9271;DHT22;4673;53.458;9.940;2023-02-28T17:04:12;2.40;53.30
9271;DHT22;4673;53.458;9.940;2023-02-28T17:06:39;2.30;54.20
9271;DHT22;4673;53.458;9.940;2023-02-28T17:09:05;2.30;55.50
9271;DHT22;4673;53.458;9.940;2023-02-28T17:11:34;2.20;55.20
9271;DHT22;4673;53.458;9.940;2023-02-28T17:13:59;2.10;56.50
9271;DHT22;4673;53.458;9.940;2023-02-28T17:16:29;2.00;56.50
9271;DHT22;4673;53.458;9.940;2023-02-28T17:19:04;1.80;56.80
9271;DHT22;4673;53.458;9.940;2023-02-28T17:21:31;1.70;57.70
9271;DHT22;4673;53.458;9.940;2023-02-28T17:23:57;1.60;58.00
9271;DHT22;4673;53.458;9.940;2023-02-28T17:26:23;1.50;58.80
9271;DHT22;4673;53.458;9.940;2023-02-28T17:28:53;1.40;59.70
9271;DHT22;4673;53.458;9.940;2023-02-28T17:31:21;1.30;60.70
9271;DHT22;4673;53.458;9.940;2023-02-28T17:33:47;1.20;60.80
9271;DHT22;4673;53.458;9.940;2023-02-28T17:36:15;1.10;61.20
9271;DHT22;4673;53.458;9.940;2023-02-28T17:38:42;1.10;61.60
9271;DHT22;4673;53.458;9.940;2023-02-28T17:41:11;0.90;61.90
9271;DHT22;4673;53.458;9.940;2023-02-28T17:43:36;0.80;62.30
9271;DHT22;4673;53.458;9.940;2023-02-28T17:46:02;0.70;63.00
9271;DHT22;4673;53.458;9.940;2023-02-28T17:48:30;0.70;63.80
9271;DHT22;4673;53.458;9.940;2023-02-28T17:50:56;0.60;64.10
9271;DHT22;4673;53.458;9.940;2023-02-28T17:53:22;0.60;64.40
9271;DHT22;4673;53.458;9.940;2023-02-28T17:55:49;0.50;64.70
9271;DHT22;4673;53.458;9.940;2023-02-28T17:58:14;0.50;65.60
9271;DHT22;4673;53.458;9.940;2023-02-28T18:00:40;0.50;65.60
9271;DHT22;4673;53.458;9.940;2023-02-28T18:03:06;0.40;65.80
9271;DHT22;4673;53.458;9.940;2023-02-28T18:05:32;0.30;66.30
9271;DHT22;4673;53.458;9.940;2023-02-28T18:07:58;0.20;67.20
9271;DHT22;4673;53.458;9.940;2023-02-28T18:10:23;0.30;68.10
9271;DHT22;4673;53.458;9.940;2023-02-28T18:12:51;0.30;68.40
9271;DHT22;4673;53.458;9.940;2023-02-28T18:15:19;0.30;68.60
9271;DHT22;4673;53.458;9.940;2023-02-28T18:17:45;0.20;68.50
9271;DHT22;4673;53.458;9.940;2023-02-28T18:20:12;0.10;68.80
9271;DHT22;4673;53.458;9.940;2023-02-28T18:22:38;0.00;69.30
9271;DHT22;4673;53.458;9.940;2023-02-28T18:25:06;0.00;69.70
9271;DHT22;4673;53.458;9.940;2023-02-28T18:27:36;0.00;70.00
9271;DHT22;4673;53.458;9.940;2023-02-28T18:30:03;0.00;70.80
9271;DHT22;4673;53.458;9.940;2023-02-28T18:32:30;0.00;71.00
9271;DHT22;4673;53.458;9.940;2023-02-28T18:34:56;0.00;70.70
9271;DHT22;4673;53.458;9.940;2023-02-28T18:37:21;-0.10;70.80
9271;DHT22;4673;53.458;9.940;2023-02-28T18:39:47;-0.10;71.30
9271;DHT22;4673;53.458;9.940;2023-02-28T18:42:12;-0.20;71.40
9271;DHT22;4673;53.458;9.940;2023-02-28T18:44:38;-0.20;71.70
9271;DHT22;4673;53.458;9.940;2023-02-28T18:47:04;-0.30;72.00
9271;DHT22;4673;53.458;9.940;2023-02-28T18:49:32;-0.30;72.40
9271;DHT22;4673;53.458;9.940;2023-02-28T18:52:00;-0.40;72.60
9271;DHT22;4673;53.458;9.940;2023-02-28T18:54:26;-0.40;73.00
9271;DHT22;4673;53.458;9.940;2023-02-28T18:56:52;-0.30;73.10